Ambrosia Lake, New Mexico
Current Conditions -  °F | °C
As of 2:17 PM on Monday 24 Nov 2014 (Local Time) from KGNT Reporting Station
Broken Clouds Broken Clouds  
Wind Chill: 30°   Ceiling: 8000
Heat Index: 39°   Visibility: 10mi
Dew Point:   Wind: 17mph
Humidity: 24%   Direction: 330°NNW
Pressure: 30.13"   Gusts: 28mph
Location:  35.2644°N, 107.733°W
Report Text: KGNT 242117Z AUTO 33015G24KT 10SM SCT065 BKN080 BKN100 04/M15 A3013 RMK AO2
Loading
Personal Weather Stations






























Interactive Weather Map New forecast layout! Learn more

10-Day Weather Forecast

Advertisements
Track Severe Weather on mobile